sensor_id;sensor_type;location;lat;lon;timestamp;temperature;humidity
74822;DHT22;63353;48.702;8.884;2023-04-25T00:00:33;6.10;99.90
74822;DHT22;63353;48.702;8.884;2023-04-25T00:02:59;6.10;99.90
74822;DHT22;63353;48.702;8.884;2023-04-25T00:05:28;6.10;99.90
74822;DHT22;63353;48.702;8.884;2023-04-25T00:07:54;6.10;99.90
74822;DHT22;63353;48.702;8.884;2023-04-25T00:10:20;6.10;99.90
74822;DHT22;63353;48.702;8.884;2023-04-25T00:12:46;6.00;99.90
74822;DHT22;63353;48.702;8.884;2023-04-25T00:15:16;6.00;99.90
74822;DHT22;63353;48.702;8.884;2023-04-25T00:17:41;5.90;99.90
74822;DHT22;63353;48.702;8.884;2023-04-25T00:20:08;5.90;99.90
74822;DHT22;63353;48.702;8.884;2023-04-25T00:22:49;5.90;99.90
74822;DHT22;63353;48.702;8.884;2023-04-25T00:25:15;5.90;99.90
74822;DHT22;63353;48.702;8.884;2023-04-25T00:27:43;5.90;99.90
74822;DHT22;63353;48.702;8.884;2023-04-25T00:30:09;6.00;99.90
74822;DHT22;63353;48.702;8.884;2023-04-25T00:32:38;6.00;99.90
74822;DHT22;63353;48.702;8.884;2023-04-25T00:35:03;6.00;99.90
74822;DHT22;63353;48.702;8.884;2023-04-25T00:37:35;6.00;99.90
74822;DHT22;63353;48.702;8.884;2023-04-25T00:40:06;5.90;99.90
74822;DHT22;63353;48.702;8.884;2023-04-25T00:42:41;5.90;99.90
74822;DHT22;63353;48.702;8.884;2023-04-25T00:45:09;5.90;99.90
74822;DHT22;63353;48.702;8.884;2023-04-25T00:47:41;5.80;99.90
74822;DHT22;63353;48.702;8.884;2023-04-25T00:50:10;5.90;99.90
74822;DHT22;63353;48.702;8.884;2023-04-25T00:52:39;5.90;99.90
74822;DHT22;63353;48.702;8.884;2023-04-25T00:55:06;5.80;99.90
74822;DHT22;63353;48.702;8.884;2023-04-25T00:57:32;5.80;99.90
74822;DHT22;63353;48.702;8.884;2023-04-25T01:00:05;5.80;99.90
74822;DHT22;63353;48.702;8.884;2023-04-25T01:02:35;5.90;99.90
74822;DHT22;63353;48.702;8.884;2023-04-25T01:05:01;5.90;99.90
74822;DHT22;63353;48.702;8.884;2023-04-25T01:07:32;5.80;99.90
74822;DHT22;63353;48.702;8.884;2023-04-25T01:10:02;5.80;99.90
74822;DHT22;63353;48.702;8.884;2023-04-25T01:12:28;5.80;99.90
74822;DHT22;63353;48.702;8.884;2023-04-25T01:15:00;5.70;99.90
74822;DHT22;63353;48.702;8.884;2023-04-25T01:17:33;5.60;99.90
74822;DHT22;63353;48.702;8.884;2023-04-25T01:19:59;5.60;99.90
74822;DHT22;63353;48.702;8.884;2023-04-25T01:22:25;5.60;99.90
74822;DHT22;63353;48.702;8.884;2023-04-25T01:24:57;5.60;99.90
74822;DHT22;63353;48.702;8.884;2023-04-25T01:27:23;5.50;99.90
74822;DHT22;63353;48.702;8.884;2023-04-25T01:29:50;5.50;99.90
74822;DHT22;63353;48.702;8.884;2023-04-25T01:32:22;5.50;99.90
74822;DHT22;63353;48.702;8.884;2023-04-25T01:34:55;5.50;99.90
74822;DHT22;63353;48.702;8.884;2023-04-25T01:37:20;5.50;99.90
74822;DHT22;63353;48.702;8.884;2023-04-25T01:39:49;5.60;99.90
74822;DHT22;63353;48.702;8.884;2023-04-25T01:42:19;5.60;99.90
74822;DHT22;63353;48.702;8.884;2023-04-25T01:44:47;5.60;99.90
74822;DHT22;63353;48.702;8.884;2023-04-25T01:47:13;5.50;99.90
74822;DHT22;63353;48.702;8.884;2023-04-25T01:49:39;5.50;99.90
74822;DHT22;63353;48.702;8.884;2023-04-25T01:52:04;5.60;99.90
74822;DHT22;63353;48.702;8.884;2023-04-25T01:54:40;5.50;99.90
74822;DHT22;63353;48.702;8.884;2023-04-25T01:57:09;5.40;99.90
74822;DHT22;63353;48.702;8.884;2023-04-25T01:59:35;5.50;99.90
74822;DHT22;63353;48.702;8.884;2023-04-25T02:02:01;5.40;99.90
74822;DHT22;63353;48.702;8.884;2023-04-25T02:04:32;5.40;99.90
74822;DHT22;63353;48.702;8.884;2023-04-25T02:07:01;5.20;99.90
74822;DHT22;63353;48.702;8.884;2023-04-25T02:09:27;5.10;99.90
74822;DHT22;63353;48.702;8.884;2023-04-25T02:11:59;5.20;99.90
74822;DHT22;63353;48.702;8.884;2023-04-25T02:14:27;5.10;99.90
74822;DHT22;63353;48.702;8.884;2023-04-25T02:17:03;5.00;99.90
74822;DHT22;63353;48.702;8.884;2023-04-25T02:19:28;5.00;99.90
74822;DHT22;63353;48.702;8.884;2023-04-25T02:21:57;4.90;99.90
74822;DHT22;63353;48.702;8.884;2023-04-25T02:24:23;4.90;99.90
74822;DHT22;63353;48.702;8.884;2023-04-25T02:26:49;4.90;99.90
74822;DHT22;63353;48.702;8.884;2023-04-25T02:29:15;4.90;99.90
74822;DHT22;63353;48.702;8.884;2023-04-25T02:31:50;4.80;99.90
74822;DHT22;63353;48.702;8.884;2023-04-25T02:34:25;4.70;99.90
74822;DHT22;63353;48.702;8.884;2023-04-25T02:37:00;4.70;99.90
74822;DHT22;63353;48.702;8.884;2023-04-25T02:39:25;4.80;99.90
74822;DHT22;63353;48.702;8.884;2023-04-25T02:41:52;4.80;99.90
74822;DHT22;63353;48.702;8.884;2023-04-25T02:44:24;4.90;99.90
74822;DHT22;63353;48.702;8.884;2023-04-25T02:46:49;5.00;99.90
74822;DHT22;63353;48.702;8.884;2023-04-25T02:49:18;5.00;99.90
74822;DHT22;63353;48.702;8.884;2023-04-25T02:51:47;5.00;99.90
74822;DHT22;63353;48.702;8.884;2023-04-25T02:54:13;4.90;99.90
74822;DHT22;63353;48.702;8.884;2023-04-25T02:56:41;4.90;99.90
74822;DHT22;63353;48.702;8.884;2023-04-25T02:59:07;4.90;99.90
74822;DHT22;63353;48.702;8.884;2023-04-25T03:01:36;5.00;99.90
74822;DHT22;63353;48.702;8.884;2023-04-25T03:04:07;5.00;99.90
74822;DHT22;63353;48.702;8.884;2023-04-25T03:06:33;5.00;99.90
74822;DHT22;63353;48.702;8.884;2023-04-25T03:08:58;5.10;99.90
74822;DHT22;63353;48.702;8.884;2023-04-25T03:11:27;5.00;99.90
74822;DHT22;63353;48.702;8.884;2023-04-25T03:13:52;5.10;99.90
74822;DHT22;63353;48.702;8.884;2023-04-25T03:16:22;5.20;99.90
74822;DHT22;63353;48.702;8.884;2023-04-25T03:18:50;5.20;99.90
74822;DHT22;63353;48.702;8.884;2023-04-25T03:21:22;5.10;99.90
74822;DHT22;63353;48.702;8.884;2023-04-25T03:23:48;5.10;99.90
74822;DHT22;63353;48.702;8.884;2023-04-25T03:26:13;5.00;99.90
74822;DHT22;63353;48.702;8.884;2023-04-25T03:28:39;4.90;99.90
74822;DHT22;63353;48.702;8.884;2023-04-25T03:31:08;4.80;99.90
74822;DHT22;63353;48.702;8.884;2023-04-25T03:33:33;4.70;99.90
74822;DHT22;63353;48.702;8.884;2023-04-25T03:35:59;4.70;99.90
74822;DHT22;63353;48.702;8.884;2023-04-25T03:38:25;4.50;99.90
74822;DHT22;63353;48.702;8.884;2023-04-25T03:40:51;4.40;99.90
74822;DHT22;63353;48.702;8.884;2023-04-25T03:43:17;4.40;99.90
74822;DHT22;63353;48.702;8.884;2023-04-25T03:45:46;4.40;99.90
74822;DHT22;63353;48.702;8.884;2023-04-25T03:48:11;4.40;99.90
74822;DHT22;63353;48.702;8.884;2023-04-25T03:50:37;4.30;99.90
74822;DHT22;63353;48.702;8.884;2023-04-25T03:53:03;4.30;99.90
74822;DHT22;63353;48.702;8.884;2023-04-25T03:55:28;4.20;99.90
74822;DHT22;63353;48.702;8.884;2023-04-25T03:57:54;4.20;99.90
74822;DHT22;63353;48.702;8.884;2023-04-25T04:00:19;4.10;99.90
74822;DHT22;63353;48.702;8.884;2023-04-25T04:02:45;4.20;99.90
74822;DHT22;63353;48.702;8.884;2023-04-25T04:05:11;4.10;99.90
74822;DHT22;63353;48.702;8.884;2023-04-25T04:07:36;4.10;99.90
74822;DHT22;63353;48.702;8.884;2023-04-25T04:10:09;4.00;99.90
74822;DHT22;63353;48.702;8.884;2023-04-25T04:12:36;3.90;99.90
74822;DHT22;63353;48.702;8.884;2023-04-25T04:15:03;3.90;99.90
74822;DHT22;63353;48.702;8.884;2023-04-25T04:17:29;3.80;99.90
74822;DHT22;63353;48.702;8.884;2023-04-25T04:20:07;3.80;99.90
74822;DHT22;63353;48.702;8.884;2023-04-25T04:22:34;3.90;99.90
74822;DHT22;63353;48.702;8.884;2023-04-25T04:25:00;3.90;99.90
74822;DHT22;63353;48.702;8.884;2023-04-25T04:27:25;3.90;99.90
74822;DHT22;63353;48.702;8.884;2023-04-25T04:29:54;3.80;99.90
74822;DHT22;63353;48.702;8.884;2023-04-25T04:32:20;3.80;99.90
74822;DHT22;63353;48.702;8.884;2023-04-25T04:34:49;3.80;99.90
74822;DHT22;63353;48.702;8.884;2023-04-25T04:37:20;3.90;99.90
74822;DHT22;63353;48.702;8.884;2023-04-25T04:39:50;3.90;99.90
74822;DHT22;63353;48.702;8.884;2023-04-25T04:42:15;4.00;99.90
74822;DHT22;63353;48.702;8.884;2023-04-25T04:44:41;4.00;99.90
74822;DHT22;63353;48.702;8.884;2023-04-25T04:47:16;4.20;99.90
74822;DHT22;63353;48.702;8.884;2023-04-25T04:49:41;4.30;99.90
74822;DHT22;63353;48.702;8.884;2023-04-25T04:52:10;4.30;99.90
74822;DHT22;63353;48.702;8.884;2023-04-25T04:54:39;4.50;99.90
74822;DHT22;63353;48.702;8.884;2023-04-25T04:57:04;4.50;99.90
74822;DHT22;63353;48.702;8.884;2023-04-25T04:59:33;4.50;99.90
74822;DHT22;63353;48.702;8.884;2023-04-25T05:01:58;4.60;99.90
74822;DHT22;63353;48.702;8.884;2023-04-25T05:04:24;4.70;99.90
74822;DHT22;63353;48.702;8.884;2023-04-25T05:06:50;4.80;99.90
74822;DHT22;63353;48.702;8.884;2023-04-25T05:09:15;4.80;99.90
74822;DHT22;63353;48.702;8.884;2023-04-25T05:11:50;4.80;99.90
74822;DHT22;63353;48.702;8.884;2023-04-25T05:14:19;4.90;99.90
74822;DHT22;63353;48.702;8.884;2023-04-25T05:16:47;4.90;99.90
74822;DHT22;63353;48.702;8.884;2023-04-25T05:19:13;5.00;99.90
74822;DHT22;63353;48.702;8.884;2023-04-25T05:21:43;5.00;99.90
74822;DHT22;63353;48.702;8.884;2023-04-25T05:24:09;5.10;99.90
74822;DHT22;63353;48.702;8.884;2023-04-25T05:26:35;5.20;99.90
74822;DHT22;63353;48.702;8.884;2023-04-25T05:29:00;5.30;99.90
74822;DHT22;63353;48.702;8.884;2023-04-25T05:31:26;5.30;99.90
74822;DHT22;63353;48.702;8.884;2023-04-25T05:33:52;5.40;99.90
74822;DHT22;63353;48.702;8.884;2023-04-25T05:36:23;5.40;99.90
74822;DHT22;63353;48.702;8.884;2023-04-25T05:38:58;5.40;99.90
74822;DHT22;63353;48.702;8.884;2023-04-25T05:41:24;5.40;99.90
74822;DHT22;63353;48.702;8.884;2023-04-25T05:43:53;5.40;99.90
74822;DHT22;63353;48.702;8.884;2023-04-25T05:46:18;5.40;99.90
74822;DHT22;63353;48.702;8.884;2023-04-25T05:48:47;5.50;99.90
74822;DHT22;63353;48.702;8.884;2023-04-25T05:51:16;5.40;99.90
74822;DHT22;63353;48.702;8.884;2023-04-25T05:53:43;5.50;99.90
74822;DHT22;63353;48.702;8.884;2023-04-25T05:56:09;5.60;99.90
74822;DHT22;63353;48.702;8.884;2023-04-25T05:58:41;5.60;99.90
74822;DHT22;63353;48.702;8.884;2023-04-25T06:01:07;5.70;99.90
74822;DHT22;63353;48.702;8.884;2023-04-25T06:03:32;5.80;99.90
74822;DHT22;63353;48.702;8.884;2023-04-25T06:05:58;5.90;99.90
74822;DHT22;63353;48.702;8.884;2023-04-25T06:08:32;6.00;99.90
74822;DHT22;63353;48.702;8.884;2023-04-25T06:11:01;6.10;99.90
74822;DHT22;63353;48.702;8.884;2023-04-25T06:13:26;6.10;99.90
74822;DHT22;63353;48.702;8.884;2023-04-25T06:15:52;6.10;99.90
74822;DHT22;63353;48.702;8.884;2023-04-25T06:18:18;6.00;99.90
74822;DHT22;63353;48.702;8.884;2023-04-25T06:20:46;6.00;99.90
74822;DHT22;63353;48.702;8.884;2023-04-25T06:23:18;6.00;99.90
74822;DHT22;63353;48.702;8.884;2023-04-25T06:26:02;5.90;99.90
74822;DHT22;63353;48.702;8.884;2023-04-25T06:28:30;5.90;99.90
74822;DHT22;63353;48.702;8.884;2023-04-25T06:30:56;5.80;99.90
74822;DHT22;63353;48.702;8.884;2023-04-25T06:33:31;5.70;99.90
74822;DHT22;63353;48.702;8.884;2023-04-25T06:36:08;5.70;99.90
74822;DHT22;63353;48.702;8.884;2023-04-25T06:38:34;5.70;99.90
74822;DHT22;63353;48.702;8.884;2023-04-25T06:41:00;5.70;99.90
74822;DHT22;63353;48.702;8.884;2023-04-25T06:43:29;5.70;99.90
74822;DHT22;63353;48.702;8.884;2023-04-25T06:46:01;5.80;99.90
74822;DHT22;63353;48.702;8.884;2023-04-25T06:48:27;5.90;99.90
74822;DHT22;63353;48.702;8.884;2023-04-25T06:50:59;5.90;99.90
74822;DHT22;63353;48.702;8.884;2023-04-25T06:53:24;6.00;99.90
74822;DHT22;63353;48.702;8.884;2023-04-25T06:55:56;6.00;99.90
74822;DHT22;63353;48.702;8.884;2023-04-25T06:58:25;6.00;99.90
74822;DHT22;63353;48.702;8.884;2023-04-25T07:00:54;6.10;99.90
74822;DHT22;63353;48.702;8.884;2023-04-25T07:03:26;6.10;99.90
74822;DHT22;63353;48.702;8.884;2023-04-25T07:05:51;6.10;99.90
74822;DHT22;63353;48.702;8.884;2023-04-25T07:08:26;6.10;99.90
74822;DHT22;63353;48.702;8.884;2023-04-25T07:10:55;6.20;99.90
74822;DHT22;63353;48.702;8.884;2023-04-25T07:13:21;6.10;99.90
74822;DHT22;63353;48.702;8.884;2023-04-25T07:15:46;6.10;99.90
74822;DHT22;63353;48.702;8.884;2023-04-25T07:18:13;6.10;99.90
74822;DHT22;63353;48.702;8.884;2023-04-25T07:20:42;6.10;99.90
74822;DHT22;63353;48.702;8.884;2023-04-25T07:23:07;6.20;99.90
74822;DHT22;63353;48.702;8.884;2023-04-25T07:25:42;6.20;99.90
74822;DHT22;63353;48.702;8.884;2023-04-25T07:28:13;6.30;99.90
74822;DHT22;63353;48.702;8.884;2023-04-25T07:30:51;6.30;99.90
74822;DHT22;63353;48.702;8.884;2023-04-25T07:33:22;6.30;99.90
74822;DHT22;63353;48.702;8.884;2023-04-25T07:35:55;6.30;99.90
74822;DHT22;63353;48.702;8.884;2023-04-25T07:38:21;6.20;99.90
74822;DHT22;63353;48.702;8.884;2023-04-25T07:40:55;6.20;99.90
74822;DHT22;63353;48.702;8.884;2023-04-25T07:43:21;6.20;99.90
74822;DHT22;63353;48.702;8.884;2023-04-25T07:45:47;6.10;99.90
74822;DHT22;63353;48.702;8.884;2023-04-25T07:48:32;6.10;99.90
74822;DHT22;63353;48.702;8.884;2023-04-25T07:50:58;6.00;99.90
74822;DHT22;63353;48.702;8.884;2023-04-25T07:53:26;6.00;99.90
74822;DHT22;63353;48.702;8.884;2023-04-25T07:55:55;6.00;99.90
74822;DHT22;63353;48.702;8.884;2023-04-25T07:58:24;6.00;99.90
74822;DHT22;63353;48.702;8.884;2023-04-25T08:00:53;5.90;99.90
74822;DHT22;63353;48.702;8.884;2023-04-25T08:03:18;5.80;99.90
74822;DHT22;63353;48.702;8.884;2023-04-25T08:05:50;5.80;99.90
74822;DHT22;63353;48.702;8.884;2023-04-25T08:08:15;5.80;99.90
74822;DHT22;63353;48.702;8.884;2023-04-25T08:10:47;5.80;99.90
74822;DHT22;63353;48.702;8.884;2023-04-25T08:13:13;5.70;99.90
74822;DHT22;63353;48.702;8.884;2023-04-25T08:15:40;5.70;99.90
74822;DHT22;63353;48.702;8.884;2023-04-25T08:18:06;5.70;99.90
74822;DHT22;63353;48.702;8.884;2023-04-25T08:20:31;5.60;99.90
74822;DHT22;63353;48.702;8.884;2023-04-25T08:23:00;5.60;99.90
74822;DHT22;63353;48.702;8.884;2023-04-25T08:25:26;5.70;99.90
74822;DHT22;63353;48.702;8.884;2023-04-25T08:27:51;5.70;99.90
74822;DHT22;63353;48.702;8.884;2023-04-25T08:30:20;5.80;99.90
74822;DHT22;63353;48.702;8.884;2023-04-25T08:32:46;5.90;99.90
74822;DHT22;63353;48.702;8.884;2023-04-25T08:35:15;5.90;99.90
74822;DHT22;63353;48.702;8.884;2023-04-25T08:37:42;5.80;99.90
74822;DHT22;63353;48.702;8.884;2023-04-25T08:40:13;5.80;99.90
74822;DHT22;63353;48.702;8.884;2023-04-25T08:42:41;5.80;99.90
74822;DHT22;63353;48.702;8.884;2023-04-25T08:45:08;5.90;99.90
74822;DHT22;63353;48.702;8.884;2023-04-25T08:47:45;5.80;99.90
74822;DHT22;63353;48.702;8.884;2023-04-25T08:50:11;5.70;99.90
74822;DHT22;63353;48.702;8.884;2023-04-25T08:52:50;5.70;99.90
74822;DHT22;63353;48.702;8.884;2023-04-25T08:55:21;5.80;99.90
74822;DHT22;63353;48.702;8.884;2023-04-25T08:57:47;5.70;99.90
74822;DHT22;63353;48.702;8.884;2023-04-25T09:00:16;5.60;99.90
74822;DHT22;63353;48.702;8.884;2023-04-25T09:02:50;5.50;99.90
74822;DHT22;63353;48.702;8.884;2023-04-25T09:05:22;5.50;99.90
74822;DHT22;63353;48.702;8.884;2023-04-25T09:07:54;5.50;99.90
74822;DHT22;63353;48.702;8.884;2023-04-25T09:10:19;5.60;99.90
74822;DHT22;63353;48.702;8.884;2023-04-25T09:13:23;5.50;99.90
74822;DHT22;63353;48.702;8.884;2023-04-25T09:15:57;5.30;99.90
74822;DHT22;63353;48.702;8.884;2023-04-25T09:18:31;5.30;99.90
74822;DHT22;63353;48.702;8.884;2023-04-25T09:21:10;5.20;99.90
74822;DHT22;63353;48.702;8.884;2023-04-25T09:23:55;5.20;99.90
74822;DHT22;63353;48.702;8.884;2023-04-25T09:26:23;5.10;99.90
74822;DHT22;63353;48.702;8.884;2023-04-25T09:29:06;5.00;99.90
74822;DHT22;63353;48.702;8.884;2023-04-25T09:31:35;5.10;99.90
74822;DHT22;63353;48.702;8.884;2023-04-25T09:34:01;5.00;99.90
74822;DHT22;63353;48.702;8.884;2023-04-25T09:36:28;5.00;99.90
74822;DHT22;63353;48.702;8.884;2023-04-25T09:38:55;5.00;99.90
74822;DHT22;63353;48.702;8.884;2023-04-25T09:41:24;5.00;99.90
74822;DHT22;63353;48.702;8.884;2023-04-25T09:43:50;5.00;99.90
74822;DHT22;63353;48.702;8.884;2023-04-25T09:46:32;4.90;99.90
74822;DHT22;63353;48.702;8.884;2023-04-25T09:48:57;4.90;99.90
74822;DHT22;63353;48.702;8.884;2023-04-25T09:51:25;5.00;99.90
74822;DHT22;63353;48.702;8.884;2023-04-25T09:53:52;5.10;99.90
74822;DHT22;63353;48.702;8.884;2023-04-25T09:56:36;5.30;99.90
74822;DHT22;63353;48.702;8.884;2023-04-25T09:59:03;5.10;99.90
74822;DHT22;63353;48.702;8.884;2023-04-25T10:01:29;5.10;99.90
74822;DHT22;63353;48.702;8.884;2023-04-25T10:03:56;5.10;99.90
74822;DHT22;63353;48.702;8.884;2023-04-25T10:06:34;5.10;99.90
74822;DHT22;63353;48.702;8.884;2023-04-25T10:09:03;5.30;99.90
74822;DHT22;63353;48.702;8.884;2023-04-25T10:11:41;5.60;99.90
74822;DHT22;63353;48.702;8.884;2023-04-25T10:14:09;5.60;99.90
74822;DHT22;63353;48.702;8.884;2023-04-25T10:16:41;5.60;99.90
74822;DHT22;63353;48.702;8.884;2023-04-25T10:19:09;5.60;99.90
74822;DHT22;63353;48.702;8.884;2023-04-25T10:24:24;5.50;99.90
74822;DHT22;63353;48.702;8.884;2023-04-25T10:26:54;5.60;99.90
74822;DHT22;63353;48.702;8.884;2023-04-25T10:29:27;5.70;99.90
74822;DHT22;63353;48.702;8.884;2023-04-25T10:31:53;5.80;99.90
74822;DHT22;63353;48.702;8.884;2023-04-25T10:34:19;5.80;99.90
74822;DHT22;63353;48.702;8.884;2023-04-25T10:36:53;5.90;99.90
74822;DHT22;63353;48.702;8.884;2023-04-25T10:39:27;6.10;99.90
74822;DHT22;63353;48.702;8.884;2023-04-25T10:41:57;6.20;99.90
74822;DHT22;63353;48.702;8.884;2023-04-25T10:44:26;6.20;99.90
74822;DHT22;63353;48.702;8.884;2023-04-25T10:46:57;6.20;99.90
74822;DHT22;63353;48.702;8.884;2023-04-25T10:52:33;6.60;99.90
74822;DHT22;63353;48.702;8.884;2023-04-25T10:54:59;6.50;99.90
74822;DHT22;63353;48.702;8.884;2023-04-25T11:00:20;6.40;99.90
74822;DHT22;63353;48.702;8.884;2023-04-25T11:02:52;6.40;99.90
74822;DHT22;63353;48.702;8.884;2023-04-25T11:05:35;6.50;99.90
74822;DHT22;63353;48.702;8.884;2023-04-25T11:08:01;6.60;99.90
74822;DHT22;63353;48.702;8.884;2023-04-25T11:10:30;6.70;99.90
74822;DHT22;63353;48.702;8.884;2023-04-25T11:12:57;6.80;99.90
74822;DHT22;63353;48.702;8.884;2023-04-25T11:15:23;7.00;99.90
74822;DHT22;63353;48.702;8.884;2023-04-25T11:17:51;7.10;99.90
74822;DHT22;63353;48.702;8.884;2023-04-25T11:20:25;7.10;99.90
74822;DHT22;63353;48.702;8.884;2023-04-25T11:22:57;7.00;99.90
74822;DHT22;63353;48.702;8.884;2023-04-25T11:25:30;6.30;99.90
74822;DHT22;63353;48.702;8.884;2023-04-25T11:27:57;6.10;99.90
74822;DHT22;63353;48.702;8.884;2023-04-25T11:30:25;6.10;99.90
74822;DHT22;63353;48.702;8.884;2023-04-25T11:32:56;6.10;99.90
74822;DHT22;63353;48.702;8.884;2023-04-25T11:35:22;5.90;99.90
74822;DHT22;63353;48.702;8.884;2023-04-25T11:37:54;5.90;99.90
74822;DHT22;63353;48.702;8.884;2023-04-25T11:40:26;6.00;99.90
74822;DHT22;63353;48.702;8.884;2023-04-25T11:42:51;5.90;99.90
74822;DHT22;63353;48.702;8.884;2023-04-25T11:45:23;6.20;99.90
74822;DHT22;63353;48.702;8.884;2023-04-25T11:47:49;6.30;99.90
74822;DHT22;63353;48.702;8.884;2023-04-25T11:50:24;6.40;99.90
74822;DHT22;63353;48.702;8.884;2023-04-25T11:52:57;6.50;99.90
74822;DHT22;63353;48.702;8.884;2023-04-25T11:55:22;6.80;99.90
74822;DHT22;63353;48.702;8.884;2023-04-25T11:57:51;6.90;99.90
74822;DHT22;63353;48.702;8.884;2023-04-25T12:00:21;6.50;99.90
74822;DHT22;63353;48.702;8.884;2023-04-25T12:02:52;6.30;99.90
74822;DHT22;63353;48.702;8.884;2023-04-25T12:05:18;6.30;99.90
74822;DHT22;63353;48.702;8.884;2023-04-25T12:07:45;6.40;99.90
74822;DHT22;63353;48.702;8.884;2023-04-25T12:10:16;6.50;99.90
74822;DHT22;63353;48.702;8.884;2023-04-25T12:12:45;6.70;99.90
74822;DHT22;63353;48.702;8.884;2023-04-25T12:15:16;6.60;99.90
74822;DHT22;63353;48.702;8.884;2023-04-25T12:17:45;6.70;99.90
74822;DHT22;63353;48.702;8.884;2023-04-25T12:20:24;6.90;99.90
74822;DHT22;63353;48.702;8.884;2023-04-25T12:22:52;7.00;99.90
74822;DHT22;63353;48.702;8.884;2023-04-25T12:25:44;6.50;99.90
74822;DHT22;63353;48.702;8.884;2023-04-25T12:28:22;6.40;99.90
74822;DHT22;63353;48.702;8.884;2023-04-25T12:33:22;6.70;99.90
74822;DHT22;63353;48.702;8.884;2023-04-25T12:35:47;6.90;99.90
74822;DHT22;63353;48.702;8.884;2023-04-25T12:38:30;7.30;99.90
74822;DHT22;63353;48.702;8.884;2023-04-25T12:40:59;7.50;99.90
74822;DHT22;63353;48.702;8.884;2023-04-25T12:43:28;8.00;99.90
74822;DHT22;63353;48.702;8.884;2023-04-25T12:46:06;8.40;99.90
74822;DHT22;63353;48.702;8.884;2023-04-25T12:48:42;8.80;99.90
74822;DHT22;63353;48.702;8.884;2023-04-25T12:51:10;9.00;99.90
74822;DHT22;63353;48.702;8.884;2023-04-25T12:53:42;9.30;99.90
74822;DHT22;63353;48.702;8.884;2023-04-25T12:56:08;9.80;99.90
74822;DHT22;63353;48.702;8.884;2023-04-25T12:58:35;10.10;99.90
74822;DHT22;63353;48.702;8.884;2023-04-25T13:01:00;10.00;99.90
74822;DHT22;63353;48.702;8.884;2023-04-25T13:03:29;9.70;99.90
74822;DHT22;63353;48.702;8.884;2023-04-25T13:05:55;9.90;99.90
74822;DHT22;63353;48.702;8.884;2023-04-25T13:08:21;9.50;99.90
74822;DHT22;63353;48.702;8.884;2023-04-25T13:10:50;9.70;99.90
74822;DHT22;63353;48.702;8.884;2023-04-25T13:13:21;9.80;99.90
74822;DHT22;63353;48.702;8.884;2023-04-25T13:15:47;10.00;99.90
74822;DHT22;63353;48.702;8.884;2023-04-25T13:18:28;10.10;99.90
74822;DHT22;63353;48.702;8.884;2023-04-25T13:21:00;10.00;99.90
74822;DHT22;63353;48.702;8.884;2023-04-25T13:23:29;9.80;99.90
74822;DHT22;63353;48.702;8.884;2023-04-25T13:25:56;9.70;99.90
74822;DHT22;63353;48.702;8.884;2023-04-25T13:28:29;9.20;99.90
74822;DHT22;63353;48.702;8.884;2023-04-25T13:30:55;9.30;99.90
74822;DHT22;63353;48.702;8.884;2023-04-25T13:33:24;9.80;99.90
74822;DHT22;63353;48.702;8.884;2023-04-25T13:35:51;9.70;99.90
74822;DHT22;63353;48.702;8.884;2023-04-25T13:38:23;9.90;99.90
74822;DHT22;63353;48.702;8.884;2023-04-25T13:40:58;10.00;99.90
74822;DHT22;63353;48.702;8.884;2023-04-25T13:43:27;9.50;99.90
74822;DHT22;63353;48.702;8.884;2023-04-25T13:45:52;9.20;99.90
74822;DHT22;63353;48.702;8.884;2023-04-25T13:48:21;8.80;99.90
74822;DHT22;63353;48.702;8.884;2023-04-25T13:50:48;9.10;99.90
74822;DHT22;63353;48.702;8.884;2023-04-25T13:53:16;9.40;99.90
74822;DHT22;63353;48.702;8.884;2023-04-25T13:55:44;10.00;99.90
74822;DHT22;63353;48.702;8.884;2023-04-25T13:58:13;9.90;99.90
74822;DHT22;63353;48.702;8.884;2023-04-25T14:00:40;10.40;99.90
74822;DHT22;63353;48.702;8.884;2023-04-25T14:03:13;11.10;99.90
74822;DHT22;63353;48.702;8.884;2023-04-25T14:05:39;11.30;99.90
74822;DHT22;63353;48.702;8.884;2023-04-25T14:08:10;11.50;99.90
74822;DHT22;63353;48.702;8.884;2023-04-25T14:10:36;11.40;99.90
74822;DHT22;63353;48.702;8.884;2023-04-25T14:13:02;11.10;99.90
74822;DHT22;63353;48.702;8.884;2023-04-25T14:15:29;10.40;99.90
74822;DHT22;63353;48.702;8.884;2023-04-25T14:17:59;10.40;99.90
74822;DHT22;63353;48.702;8.884;2023-04-25T14:20:25;10.40;99.90
74822;DHT22;63353;48.702;8.884;2023-04-25T14:22:50;10.00;99.90
74822;DHT22;63353;48.702;8.884;2023-04-25T14:25:17;9.90;99.90
74822;DHT22;63353;48.702;8.884;2023-04-25T14:27:45;10.10;99.90
74822;DHT22;63353;48.702;8.884;2023-04-25T14:30:18;9.90;99.90
74822;DHT22;63353;48.702;8.884;2023-04-25T14:32:44;10.20;99.90
74822;DHT22;63353;48.702;8.884;2023-04-25T14:35:11;10.10;99.90
74822;DHT22;63353;48.702;8.884;2023-04-25T14:37:42;10.20;99.90
74822;DHT22;63353;48.702;8.884;2023-04-25T14:40:09;10.20;99.90
74822;DHT22;63353;48.702;8.884;2023-04-25T14:42:36;10.20;99.90
74822;DHT22;63353;48.702;8.884;2023-04-25T14:45:03;10.10;99.90
74822;DHT22;63353;48.702;8.884;2023-04-25T14:47:29;10.00;99.90
74822;DHT22;63353;48.702;8.884;2023-04-25T14:49:56;10.40;99.90
74822;DHT22;63353;48.702;8.884;2023-04-25T14:52:27;10.90;99.90
74822;DHT22;63353;48.702;8.884;2023-04-25T14:54:53;11.70;99.90
74822;DHT22;63353;48.702;8.884;2023-04-25T14:57:21;13.80;99.90
74822;DHT22;63353;48.702;8.884;2023-04-25T14:59:56;15.80;99.90
74822;DHT22;63353;48.702;8.884;2023-04-25T15:02:28;16.80;99.90
74822;DHT22;63353;48.702;8.884;2023-04-25T15:04:54;18.30;99.90
74822;DHT22;63353;48.702;8.884;2023-04-25T15:07:21;18.80;99.90
74822;DHT22;63353;48.702;8.884;2023-04-25T15:09:47;17.30;99.90
74822;DHT22;63353;48.702;8.884;2023-04-25T15:12:14;16.70;99.90
74822;DHT22;63353;48.702;8.884;2023-04-25T15:14:40;15.20;99.90
74822;DHT22;63353;48.702;8.884;2023-04-25T15:17:05;14.60;99.90
74822;DHT22;63353;48.702;8.884;2023-04-25T15:19:31;15.10;99.90
74822;DHT22;63353;48.702;8.884;2023-04-25T15:21:57;14.60;99.90
74822;DHT22;63353;48.702;8.884;2023-04-25T15:24:25;14.50;99.90
74822;DHT22;63353;48.702;8.884;2023-04-25T15:26:51;14.10;99.90
74822;DHT22;63353;48.702;8.884;2023-04-25T15:29:29;13.20;99.90
74822;DHT22;63353;48.702;8.884;2023-04-25T15:31:58;12.50;99.90
74822;DHT22;63353;48.702;8.884;2023-04-25T15:34:24;12.00;99.90
74822;DHT22;63353;48.702;8.884;2023-04-25T15:36:49;11.30;99.90
74822;DHT22;63353;48.702;8.884;2023-04-25T15:39:15;10.80;99.90
74822;DHT22;63353;48.702;8.884;2023-04-25T15:41:42;10.50;99.90
74822;DHT22;63353;48.702;8.884;2023-04-25T15:44:07;10.30;99.90
74822;DHT22;63353;48.702;8.884;2023-04-25T15:46:35;10.10;99.90
74822;DHT22;63353;48.702;8.884;2023-04-25T15:49:00;10.10;99.90
74822;DHT22;63353;48.702;8.884;2023-04-25T15:51:33;10.30;99.90
74822;DHT22;63353;48.702;8.884;2023-04-25T15:53:59;9.90;99.90
74822;DHT22;63353;48.702;8.884;2023-04-25T15:56:28;10.00;99.90
74822;DHT22;63353;48.702;8.884;2023-04-25T15:58:54;9.60;99.90
74822;DHT22;63353;48.702;8.884;2023-04-25T16:01:26;9.70;99.90
74822;DHT22;63353;48.702;8.884;2023-04-25T16:03:55;9.50;99.90
74822;DHT22;63353;48.702;8.884;2023-04-25T16:06:23;9.50;99.90